sensor_id;sensor_type;location;lat;lon;timestamp;P1;durP1;ratioP1;P2;durP2;ratioP2
18532;SDS011;9396;51.510;11.934;2023-04-01T00:02:11;3.80;;;1.13;;
18532;SDS011;9396;51.510;11.934;2023-04-01T00:04:38;2.60;;;1.20;;
18532;SDS011;9396;51.510;11.934;2023-04-01T00:07:04;3.93;;;1.30;;
18532;SDS011;9396;51.510;11.934;2023-04-01T00:09:32;1.83;;;1.07;;
18532;SDS011;9396;51.510;11.934;2023-04-01T00:12:00;4.50;;;1.20;;
18532;SDS011;9396;51.510;11.934;2023-04-01T00:14:26;2.13;;;1.00;;
18532;SDS011;9396;51.510;11.934;2023-04-01T00:16:54;2.70;;;1.17;;
18532;SDS011;9396;51.510;11.934;2023-04-01T00:19:20;3.83;;;0.90;;
18532;SDS011;9396;51.510;11.934;2023-04-01T00:21:47;1.37;;;0.90;;
18532;SDS011;9396;51.510;11.934;2023-04-01T00:24:14;2.90;;;0.90;;
18532;SDS011;9396;51.510;11.934;2023-04-01T00:26:42;2.07;;;0.93;;
18532;SDS011;9396;51.510;11.934;2023-04-01T00:29:09;2.20;;;1.00;;
18532;SDS011;9396;51.510;11.934;2023-04-01T00:31:36;2.53;;;1.17;;
18532;SDS011;9396;51.510;11.934;2023-04-01T00:34:02;2.43;;;1.30;;
18532;SDS011;9396;51.510;11.934;2023-04-01T00:36:29;2.57;;;1.03;;
18532;SDS011;9396;51.510;11.934;2023-04-01T00:38:57;3.33;;;1.73;;
18532;SDS011;9396;51.510;11.934;2023-04-01T00:41:23;2.73;;;1.23;;
18532;SDS011;9396;51.510;11.934;2023-04-01T00:43:52;2.43;;;1.03;;
18532;SDS011;9396;51.510;11.934;2023-04-01T00:46:20;3.30;;;1.30;;
18532;SDS011;9396;51.510;11.934;2023-04-01T00:48:47;3.50;;;1.30;;
18532;SDS011;9396;51.510;11.934;2023-04-01T00:51:17;3.57;;;1.13;;
18532;SDS011;9396;51.510;11.934;2023-04-01T00:53:48;2.33;;;1.00;;
18532;SDS011;9396;51.510;11.934;2023-04-01T00:56:18;2.50;;;1.13;;
18532;SDS011;9396;51.510;11.934;2023-04-01T00:58:49;3.53;;;1.43;;
18532;SDS011;9396;51.510;11.934;2023-04-01T01:01:20;2.63;;;0.90;;
18532;SDS011;9396;51.510;11.934;2023-04-01T01:03:48;3.80;;;1.10;;
18532;SDS011;9396;51.510;11.934;2023-04-01T01:06:17;3.60;;;1.33;;
18532;SDS011;9396;51.510;11.934;2023-04-01T01:09:02;3.73;;;1.13;;
18532;SDS011;9396;51.510;11.934;2023-04-01T01:11:41;2.40;;;1.17;;
18532;SDS011;9396;51.510;11.934;2023-04-01T01:14:20;2.33;;;1.03;;
18532;SDS011;9396;51.510;11.934;2023-04-01T01:16:58;3.53;;;1.20;;
18532;SDS011;9396;51.510;11.934;2023-04-01T01:19:45;4.30;;;1.37;;
18532;SDS011;9396;51.510;11.934;2023-04-01T01:25:38;2.30;;;1.10;;
18532;SDS011;9396;51.510;11.934;2023-04-01T01:28:15;2.63;;;1.10;;
18532;SDS011;9396;51.510;11.934;2023-04-01T01:30:58;4.77;;;1.20;;
18532;SDS011;9396;51.510;11.934;2023-04-01T01:33:39;2.33;;;1.03;;
18532;SDS011;9396;51.510;11.934;2023-04-01T01:36:28;3.10;;;1.27;;
18532;SDS011;9396;51.510;11.934;2023-04-01T01:38:59;3.60;;;0.90;;
18532;SDS011;9396;51.510;11.934;2023-04-01T01:41:27;6.30;;;1.50;;
18532;SDS011;9396;51.510;11.934;2023-04-01T01:43:57;4.03;;;1.20;;
18532;SDS011;9396;51.510;11.934;2023-04-01T01:46:26;2.43;;;1.10;;
18532;SDS011;9396;51.510;11.934;2023-04-01T01:48:56;2.77;;;1.23;;
18532;SDS011;9396;51.510;11.934;2023-04-01T01:51:26;4.53;;;1.10;;
18532;SDS011;9396;51.510;11.934;2023-04-01T01:53:54;3.87;;;1.30;;
18532;SDS011;9396;51.510;11.934;2023-04-01T01:56:21;2.97;;;1.13;;
18532;SDS011;9396;51.510;11.934;2023-04-01T01:58:53;4.37;;;1.30;;
18532;SDS011;9396;51.510;11.934;2023-04-01T02:01:23;3.90;;;1.10;;
18532;SDS011;9396;51.510;11.934;2023-04-01T02:03:52;2.80;;;1.30;;
18532;SDS011;9396;51.510;11.934;2023-04-01T02:06:21;1.63;;;0.80;;
18532;SDS011;9396;51.510;11.934;2023-04-01T02:08:51;3.67;;;1.10;;
18532;SDS011;9396;51.510;11.934;2023-04-01T02:11:23;1.50;;;1.00;;
18532;SDS011;9396;51.510;11.934;2023-04-01T02:13:54;3.33;;;1.13;;
18532;SDS011;9396;51.510;11.934;2023-04-01T02:16:27;2.70;;;1.10;;
18532;SDS011;9396;51.510;11.934;2023-04-01T02:19:09;3.30;;;1.10;;
18532;SDS011;9396;51.510;11.934;2023-04-01T02:21:38;2.50;;;1.07;;
18532;SDS011;9396;51.510;11.934;2023-04-01T02:24:09;4.70;;;1.17;;
18532;SDS011;9396;51.510;11.934;2023-04-01T02:26:39;3.20;;;1.10;;
18532;SDS011;9396;51.510;11.934;2023-04-01T02:29:06;4.93;;;1.20;;
18532;SDS011;9396;51.510;11.934;2023-04-01T02:31:37;4.07;;;1.17;;
18532;SDS011;9396;51.510;11.934;2023-04-01T02:34:04;1.27;;;0.90;;
18532;SDS011;9396;51.510;11.934;2023-04-01T02:36:31;8.87;;;1.30;;
18532;SDS011;9396;51.510;11.934;2023-04-01T02:38:58;1.87;;;1.20;;
18532;SDS011;9396;51.510;11.934;2023-04-01T02:41:28;3.70;;;0.90;;
18532;SDS011;9396;51.510;11.934;2023-04-01T02:43:55;1.57;;;0.90;;
18532;SDS011;9396;51.510;11.934;2023-04-01T02:46:23;3.53;;;1.00;;
18532;SDS011;9396;51.510;11.934;2023-04-01T02:48:50;2.03;;;1.10;;
18532;SDS011;9396;51.510;11.934;2023-04-01T02:51:17;2.07;;;1.30;;
18532;SDS011;9396;51.510;11.934;2023-04-01T02:53:44;1.87;;;0.83;;
18532;SDS011;9396;51.510;11.934;2023-04-01T02:56:10;2.33;;;1.10;;
18532;SDS011;9396;51.510;11.934;2023-04-01T02:58:38;2.53;;;1.20;;
18532;SDS011;9396;51.510;11.934;2023-04-01T03:01:05;3.83;;;1.00;;
18532;SDS011;9396;51.510;11.934;2023-04-01T03:03:33;2.40;;;1.20;;
18532;SDS011;9396;51.510;11.934;2023-04-01T03:06:04;3.57;;;1.20;;
18532;SDS011;9396;51.510;11.934;2023-04-01T03:08:31;2.70;;;1.43;;
18532;SDS011;9396;51.510;11.934;2023-04-01T03:10:58;4.27;;;1.10;;
18532;SDS011;9396;51.510;11.934;2023-04-01T03:13:24;3.20;;;1.20;;
18532;SDS011;9396;51.510;11.934;2023-04-01T03:15:52;3.23;;;1.10;;
18532;SDS011;9396;51.510;11.934;2023-04-01T03:18:19;5.80;;;1.20;;
18532;SDS011;9396;51.510;11.934;2023-04-01T03:20:46;6.77;;;1.40;;
18532;SDS011;9396;51.510;11.934;2023-04-01T03:23:13;3.87;;;1.00;;
18532;SDS011;9396;51.510;11.934;2023-04-01T03:25:42;2.20;;;1.30;;
18532;SDS011;9396;51.510;11.934;2023-04-01T03:28:08;3.17;;;1.20;;
18532;SDS011;9396;51.510;11.934;2023-04-01T03:30:35;4.03;;;1.20;;
18532;SDS011;9396;51.510;11.934;2023-04-01T03:33:03;4.40;;;1.30;;
18532;SDS011;9396;51.510;11.934;2023-04-01T03:35:30;4.40;;;1.47;;
18532;SDS011;9396;51.510;11.934;2023-04-01T03:37:57;3.57;;;1.20;;
18532;SDS011;9396;51.510;11.934;2023-04-01T03:40:23;2.77;;;0.97;;
18532;SDS011;9396;51.510;11.934;2023-04-01T03:42:51;2.30;;;1.00;;
18532;SDS011;9396;51.510;11.934;2023-04-01T03:45:18;4.47;;;1.30;;
18532;SDS011;9396;51.510;11.934;2023-04-01T03:47:44;4.47;;;1.00;;
18532;SDS011;9396;51.510;11.934;2023-04-01T03:50:12;3.23;;;1.00;;
18532;SDS011;9396;51.510;11.934;2023-04-01T03:52:39;4.47;;;1.60;;
18532;SDS011;9396;51.510;11.934;2023-04-01T03:55:06;5.83;;;1.27;;
18532;SDS011;9396;51.510;11.934;2023-04-01T03:57:33;5.27;;;1.23;;
18532;SDS011;9396;51.510;11.934;2023-04-01T04:00:00;3.77;;;1.07;;
18532;SDS011;9396;51.510;11.934;2023-04-01T04:02:27;3.73;;;1.30;;
18532;SDS011;9396;51.510;11.934;2023-04-01T04:04:53;2.70;;;1.00;;
18532;SDS011;9396;51.510;11.934;2023-04-01T04:07:21;3.87;;;1.10;;
18532;SDS011;9396;51.510;11.934;2023-04-01T04:09:48;3.23;;;1.10;;
18532;SDS011;9396;51.510;11.934;2023-04-01T04:12:14;4.03;;;1.47;;
18532;SDS011;9396;51.510;11.934;2023-04-01T04:14:41;2.67;;;0.90;;
18532;SDS011;9396;51.510;11.934;2023-04-01T04:17:09;6.57;;;1.20;;
18532;SDS011;9396;51.510;11.934;2023-04-01T04:19:38;3.93;;;0.90;;
18532;SDS011;9396;51.510;11.934;2023-04-01T04:22:05;4.90;;;1.20;;
18532;SDS011;9396;51.510;11.934;2023-04-01T04:24:33;2.77;;;1.10;;
18532;SDS011;9396;51.510;11.934;2023-04-01T04:27:00;1.63;;;1.07;;
18532;SDS011;9396;51.510;11.934;2023-04-01T04:29:27;2.70;;;1.50;;
18532;SDS011;9396;51.510;11.934;2023-04-01T04:31:54;4.60;;;1.30;;
18532;SDS011;9396;51.510;11.934;2023-04-01T04:34:20;3.47;;;1.07;;
18532;SDS011;9396;51.510;11.934;2023-04-01T04:36:47;1.57;;;0.93;;
18532;SDS011;9396;51.510;11.934;2023-04-01T04:39:14;3.90;;;1.03;;
18532;SDS011;9396;51.510;11.934;2023-04-01T04:41:42;4.47;;;1.70;;
18532;SDS011;9396;51.510;11.934;2023-04-01T04:44:09;4.30;;;1.20;;
18532;SDS011;9396;51.510;11.934;2023-04-01T04:46:35;1.60;;;0.90;;
18532;SDS011;9396;51.510;11.934;2023-04-01T04:49:04;1.73;;;1.00;;
18532;SDS011;9396;51.510;11.934;2023-04-01T04:51:30;6.73;;;1.50;;
18532;SDS011;9396;51.510;11.934;2023-04-01T04:53:59;2.23;;;1.07;;
18532;SDS011;9396;51.510;11.934;2023-04-01T04:56:25;3.47;;;1.00;;
18532;SDS011;9396;51.510;11.934;2023-04-01T04:58:53;4.07;;;1.20;;
18532;SDS011;9396;51.510;11.934;2023-04-01T05:01:20;2.40;;;1.00;;
18532;SDS011;9396;51.510;11.934;2023-04-01T05:03:47;1.50;;;0.80;;
18532;SDS011;9396;51.510;11.934;2023-04-01T05:06:15;3.30;;;0.97;;
18532;SDS011;9396;51.510;11.934;2023-04-01T05:08:42;4.00;;;1.10;;
18532;SDS011;9396;51.510;11.934;2023-04-01T05:11:11;3.43;;;1.27;;
18532;SDS011;9396;51.510;11.934;2023-04-01T05:13:39;3.80;;;1.80;;
18532;SDS011;9396;51.510;11.934;2023-04-01T05:16:09;2.20;;;1.10;;
18532;SDS011;9396;51.510;11.934;2023-04-01T05:18:36;4.13;;;1.20;;
18532;SDS011;9396;51.510;11.934;2023-04-01T05:21:02;2.17;;;1.10;;
18532;SDS011;9396;51.510;11.934;2023-04-01T05:23:30;3.13;;;1.00;;
18532;SDS011;9396;51.510;11.934;2023-04-01T05:25:57;2.13;;;1.03;;
18532;SDS011;9396;51.510;11.934;2023-04-01T05:28:24;4.37;;;1.73;;
18532;SDS011;9396;51.510;11.934;2023-04-01T05:30:50;1.40;;;1.10;;
18532;SDS011;9396;51.510;11.934;2023-04-01T05:33:19;2.30;;;1.23;;
18532;SDS011;9396;51.510;11.934;2023-04-01T05:35:45;2.70;;;1.20;;
18532;SDS011;9396;51.510;11.934;2023-04-01T05:38:12;2.53;;;1.07;;
18532;SDS011;9396;51.510;11.934;2023-04-01T05:40:38;2.43;;;1.10;;
18532;SDS011;9396;51.510;11.934;2023-04-01T05:43:05;4.50;;;1.23;;
18532;SDS011;9396;51.510;11.934;2023-04-01T05:45:31;2.70;;;1.20;;
18532;SDS011;9396;51.510;11.934;2023-04-01T05:47:58;1.87;;;1.17;;
18532;SDS011;9396;51.510;11.934;2023-04-01T05:50:26;3.37;;;1.10;;
18532;SDS011;9396;51.510;11.934;2023-04-01T05:52:53;2.07;;;1.00;;
18532;SDS011;9396;51.510;11.934;2023-04-01T05:55:20;1.43;;;1.10;;
18532;SDS011;9396;51.510;11.934;2023-04-01T05:57:47;3.20;;;1.30;;
18532;SDS011;9396;51.510;11.934;2023-04-01T06:00:14;2.20;;;1.10;;
18532;SDS011;9396;51.510;11.934;2023-04-01T06:02:42;3.00;;;1.20;;
18532;SDS011;9396;51.510;11.934;2023-04-01T06:05:13;1.97;;;1.00;;
18532;SDS011;9396;51.510;11.934;2023-04-01T06:07:44;6.37;;;1.33;;
18532;SDS011;9396;51.510;11.934;2023-04-01T06:10:14;3.90;;;1.10;;
18532;SDS011;9396;51.510;11.934;2023-04-01T06:12:45;2.60;;;1.17;;
18532;SDS011;9396;51.510;11.934;2023-04-01T06:15:20;4.17;;;0.90;;
18532;SDS011;9396;51.510;11.934;2023-04-01T06:18:02;1.80;;;0.90;;
18532;SDS011;9396;51.510;11.934;2023-04-01T06:20:46;1.73;;;1.00;;
18532;SDS011;9396;51.510;11.934;2023-04-01T06:23:33;3.50;;;1.20;;
18532;SDS011;9396;51.510;11.934;2023-04-01T06:26:14;2.47;;;1.10;;
18532;SDS011;9396;51.510;11.934;2023-04-01T06:29:02;3.60;;;1.10;;
18532;SDS011;9396;51.510;11.934;2023-04-01T06:31:47;2.27;;;1.07;;
18532;SDS011;9396;51.510;11.934;2023-04-01T06:34:32;2.20;;;1.03;;
18532;SDS011;9396;51.510;11.934;2023-04-01T06:37:17;2.40;;;1.23;;
18532;SDS011;9396;51.510;11.934;2023-04-01T06:40:05;3.20;;;1.10;;
18532;SDS011;9396;51.510;11.934;2023-04-01T06:42:50;4.83;;;0.93;;
18532;SDS011;9396;51.510;11.934;2023-04-01T06:45:28;2.77;;;1.30;;
18532;SDS011;9396;51.510;11.934;2023-04-01T06:48:08;3.33;;;1.50;;
18532;SDS011;9396;51.510;11.934;2023-04-01T06:50:44;2.07;;;0.90;;
18532;SDS011;9396;51.510;11.934;2023-04-01T06:53:19;2.17;;;1.00;;
18532;SDS011;9396;51.510;11.934;2023-04-01T06:55:55;2.03;;;0.97;;
18532;SDS011;9396;51.510;11.934;2023-04-01T06:58:26;3.10;;;1.10;;
18532;SDS011;9396;51.510;11.934;2023-04-01T07:00:58;2.67;;;0.93;;
18532;SDS011;9396;51.510;11.934;2023-04-01T07:03:29;4.70;;;1.10;;
18532;SDS011;9396;51.510;11.934;2023-04-01T07:06:01;1.80;;;0.80;;
18532;SDS011;9396;51.510;11.934;2023-04-01T07:08:30;1.03;;;0.90;;
18532;SDS011;9396;51.510;11.934;2023-04-01T07:11:04;3.63;;;1.20;;
18532;SDS011;9396;51.510;11.934;2023-04-01T07:13:32;3.47;;;0.73;;
18532;SDS011;9396;51.510;11.934;2023-04-01T07:16:08;4.27;;;1.10;;
18532;SDS011;9396;51.510;11.934;2023-04-01T07:18:41;3.80;;;1.03;;
18532;SDS011;9396;51.510;11.934;2023-04-01T07:21:14;2.60;;;0.80;;
18532;SDS011;9396;51.510;11.934;2023-04-01T07:23:49;5.90;;;0.97;;
18532;SDS011;9396;51.510;11.934;2023-04-01T07:26:22;1.93;;;0.90;;
18532;SDS011;9396;51.510;11.934;2023-04-01T07:28:50;3.47;;;0.93;;
18532;SDS011;9396;51.510;11.934;2023-04-01T07:31:25;1.27;;;0.90;;
18532;SDS011;9396;51.510;11.934;2023-04-01T07:34:01;3.03;;;0.83;;
18532;SDS011;9396;51.510;11.934;2023-04-01T07:36:33;1.93;;;0.97;;
18532;SDS011;9396;51.510;11.934;2023-04-01T07:39:08;3.53;;;0.97;;
18532;SDS011;9396;51.510;11.934;2023-04-01T07:41:50;1.60;;;1.00;;
18532;SDS011;9396;51.510;11.934;2023-04-01T07:44:24;2.60;;;1.13;;
18532;SDS011;9396;51.510;11.934;2023-04-01T07:47:08;1.97;;;0.87;;
18532;SDS011;9396;51.510;11.934;2023-04-01T07:49:48;1.70;;;1.00;;
18532;SDS011;9396;51.510;11.934;2023-04-01T07:52:26;1.53;;;0.90;;
18532;SDS011;9396;51.510;11.934;2023-04-01T07:55:03;2.93;;;0.83;;
18532;SDS011;9396;51.510;11.934;2023-04-01T07:57:40;2.73;;;0.90;;
18532;SDS011;9396;51.510;11.934;2023-04-01T08:00:15;3.43;;;1.00;;
18532;SDS011;9396;51.510;11.934;2023-04-01T08:02:52;3.13;;;0.80;;
18532;SDS011;9396;51.510;11.934;2023-04-01T08:05:33;3.70;;;1.03;;
18532;SDS011;9396;51.510;11.934;2023-04-01T08:08:13;1.47;;;0.80;;
18532;SDS011;9396;51.510;11.934;2023-04-01T08:10:47;1.83;;;0.80;;
18532;SDS011;9396;51.510;11.934;2023-04-01T08:13:20;1.33;;;0.70;;
18532;SDS011;9396;51.510;11.934;2023-04-01T08:16:04;3.87;;;0.83;;
18532;SDS011;9396;51.510;11.934;2023-04-01T08:18:40;1.70;;;0.90;;
18532;SDS011;9396;51.510;11.934;2023-04-01T08:21:14;2.20;;;1.13;;
18532;SDS011;9396;51.510;11.934;2023-04-01T08:23:47;4.00;;;0.80;;
18532;SDS011;9396;51.510;11.934;2023-04-01T08:26:19;1.37;;;0.63;;
18532;SDS011;9396;51.510;11.934;2023-04-01T08:28:57;2.57;;;0.77;;
18532;SDS011;9396;51.510;11.934;2023-04-01T08:31:29;0.83;;;0.83;;
18532;SDS011;9396;51.510;11.934;2023-04-01T08:33:59;2.17;;;0.93;;
18532;SDS011;9396;51.510;11.934;2023-04-01T08:36:31;4.73;;;1.00;;
18532;SDS011;9396;51.510;11.934;2023-04-01T08:39:02;1.03;;;0.60;;
18532;SDS011;9396;51.510;11.934;2023-04-01T08:44:45;2.27;;;0.90;;
18532;SDS011;9396;51.510;11.934;2023-04-01T08:47:38;2.40;;;0.90;;
18532;SDS011;9396;51.510;11.934;2023-04-01T08:50:23;1.47;;;0.63;;
18532;SDS011;9396;51.510;11.934;2023-04-01T08:52:58;2.70;;;0.90;;
18532;SDS011;9396;51.510;11.934;2023-04-01T08:55:47;1.60;;;0.80;;
18532;SDS011;9396;51.510;11.934;2023-04-01T09:01:31;2.70;;;1.00;;
18532;SDS011;9396;51.510;11.934;2023-04-01T09:04:32;2.50;;;0.77;;
18532;SDS011;9396;51.510;11.934;2023-04-01T09:07:20;3.33;;;0.90;;
18532;SDS011;9396;51.510;11.934;2023-04-01T09:10:02;2.17;;;1.00;;
18532;SDS011;9396;51.510;11.934;2023-04-01T09:12:52;1.10;;;0.90;;
18532;SDS011;9396;51.510;11.934;2023-04-01T09:15:50;3.47;;;1.10;;
18532;SDS011;9396;51.510;11.934;2023-04-01T09:18:40;1.67;;;0.97;;
18532;SDS011;9396;51.510;11.934;2023-04-01T09:27:28;3.10;;;0.80;;
18532;SDS011;9396;51.510;11.934;2023-04-01T09:33:05;2.00;;;0.80;;
18532;SDS011;9396;51.510;11.934;2023-04-01T09:36:07;0.80;;;0.50;;
18532;SDS011;9396;51.510;11.934;2023-04-01T09:38:49;1.30;;;0.60;;
18532;SDS011;9396;51.510;11.934;2023-04-01T09:41:26;1.93;;;0.70;;
18532;SDS011;9396;51.510;11.934;2023-04-01T09:44:03;1.33;;;0.57;;
18532;SDS011;9396;51.510;11.934;2023-04-01T09:46:43;0.50;;;0.50;;
18532;SDS011;9396;51.510;11.934;2023-04-01T09:52:24;2.30;;;0.50;;
18532;SDS011;9396;51.510;11.934;2023-04-01T09:55:00;1.87;;;0.53;;
18532;SDS011;9396;51.510;11.934;2023-04-01T10:00:43;1.97;;;0.60;;
18532;SDS011;9396;51.510;11.934;2023-04-01T10:13:36;1.00;;;0.60;;
18532;SDS011;9396;51.510;11.934;2023-04-01T10:16:32;0.60;;;0.40;;
18532;SDS011;9396;51.510;11.934;2023-04-01T10:19:34;1.87;;;0.50;;
18532;SDS011;9396;51.510;11.934;2023-04-01T10:25:22;1.53;;;0.60;;
18532;SDS011;9396;51.510;11.934;2023-04-01T10:28:13;1.00;;;0.40;;
18532;SDS011;9396;51.510;11.934;2023-04-01T10:31:18;1.37;;;0.70;;
18532;SDS011;9396;51.510;11.934;2023-04-01T10:36:55;1.60;;;0.53;;
18532;SDS011;9396;51.510;11.934;2023-04-01T10:43:02;1.73;;;0.60;;
18532;SDS011;9396;51.510;11.934;2023-04-01T10:48:53;2.73;;;0.50;;
18532;SDS011;9396;51.510;11.934;2023-04-01T10:55:19;1.10;;;0.50;;
18532;SDS011;9396;51.510;11.934;2023-04-01T10:58:10;1.47;;;0.53;;
18532;SDS011;9396;51.510;11.934;2023-04-01T11:01:02;0.90;;;0.50;;
18532;SDS011;9396;51.510;11.934;2023-04-01T11:03:56;3.00;;;0.73;;
18532;SDS011;9396;51.510;11.934;2023-04-01T11:06:52;1.10;;;0.60;;
18532;SDS011;9396;51.510;11.934;2023-04-01T11:09:56;1.33;;;0.53;;
18532;SDS011;9396;51.510;11.934;2023-04-01T11:13:15;0.57;;;0.40;;
18532;SDS011;9396;51.510;11.934;2023-04-01T11:16:30;2.07;;;0.60;;
18532;SDS011;9396;51.510;11.934;2023-04-01T11:22:44;0.80;;;0.57;;
18532;SDS011;9396;51.510;11.934;2023-04-01T11:25:26;1.60;;;0.60;;
18532;SDS011;9396;51.510;11.934;2023-04-01T11:28:19;0.40;;;0.40;;
18532;SDS011;9396;51.510;11.934;2023-04-01T11:31:04;4.37;;;1.00;;
18532;SDS011;9396;51.510;11.934;2023-04-01T11:33:49;0.70;;;0.50;;
18532;SDS011;9396;51.510;11.934;2023-04-01T11:36:25;0.73;;;0.40;;
18532;SDS011;9396;51.510;11.934;2023-04-01T11:39:07;1.23;;;0.50;;
18532;SDS011;9396;51.510;11.934;2023-04-01T11:41:49;1.27;;;0.50;;
18532;SDS011;9396;51.510;11.934;2023-04-01T11:44:25;1.83;;;0.57;;
18532;SDS011;9396;51.510;11.934;2023-04-01T11:46:59;0.50;;;0.50;;
18532;SDS011;9396;51.510;11.934;2023-04-01T11:49:42;2.00;;;0.60;;
18532;SDS011;9396;51.510;11.934;2023-04-01T11:52:32;0.67;;;0.50;;
18532;SDS011;9396;51.510;11.934;2023-04-01T11:58:12;2.07;;;0.60;;
18532;SDS011;9396;51.510;11.934;2023-04-01T12:00:54;1.80;;;0.70;;
18532;SDS011;9396;51.510;11.934;2023-04-01T12:03:33;1.63;;;0.50;;
18532;SDS011;9396;51.510;11.934;2023-04-01T12:06:10;5.50;;;0.60;;
18532;SDS011;9396;51.510;11.934;2023-04-01T12:08:44;3.67;;;0.70;;
18532;SDS011;9396;51.510;11.934;2023-04-01T12:11:20;2.50;;;0.80;;
18532;SDS011;9396;51.510;11.934;2023-04-01T12:13:53;1.70;;;0.60;;
18532;SDS011;9396;51.510;11.934;2023-04-01T12:16:30;1.37;;;0.50;;
18532;SDS011;9396;51.510;11.934;2023-04-01T12:19:09;1.97;;;0.43;;
18532;SDS011;9396;51.510;11.934;2023-04-01T12:21:43;2.70;;;0.40;;
18532;SDS011;9396;51.510;11.934;2023-04-01T12:24:25;1.00;;;0.40;;
18532;SDS011;9396;51.510;11.934;2023-04-01T12:27:23;0.37;;;0.20;;
18532;SDS011;9396;51.510;11.934;2023-04-01T12:33:00;0.63;;;0.50;;
18532;SDS011;9396;51.510;11.934;2023-04-01T12:35:43;0.53;;;0.40;;
18532;SDS011;9396;51.510;11.934;2023-04-01T12:38:22;1.90;;;0.40;;
18532;SDS011;9396;51.510;11.934;2023-04-01T12:41:01;0.57;;;0.30;;
18532;SDS011;9396;51.510;11.934;2023-04-01T12:43:40;1.00;;;0.50;;
18532;SDS011;9396;51.510;11.934;2023-04-01T12:46:25;1.53;;;0.30;;
18532;SDS011;9396;51.510;11.934;2023-04-01T12:49:07;1.07;;;0.30;;
18532;SDS011;9396;51.510;11.934;2023-04-01T12:51:51;0.80;;;0.40;;
18532;SDS011;9396;51.510;11.934;2023-04-01T13:00:40;1.63;;;0.47;;
18532;SDS011;9396;51.510;11.934;2023-04-01T13:03:30;2.27;;;0.70;;
18532;SDS011;9396;51.510;11.934;2023-04-01T13:09:09;0.83;;;0.57;;
18532;SDS011;9396;51.510;11.934;2023-04-01T13:11:46;0.67;;;0.60;;
18532;SDS011;9396;51.510;11.934;2023-04-01T13:14:27;0.40;;;0.40;;
18532;SDS011;9396;51.510;11.934;2023-04-01T13:17:08;0.70;;;0.60;;
18532;SDS011;9396;51.510;11.934;2023-04-01T13:19:40;0.50;;;0.50;;
18532;SDS011;9396;51.510;11.934;2023-04-01T13:22:15;0.93;;;0.50;;
18532;SDS011;9396;51.510;11.934;2023-04-01T13:24:47;1.13;;;0.63;;
18532;SDS011;9396;51.510;11.934;2023-04-01T13:27:20;1.77;;;0.50;;
18532;SDS011;9396;51.510;11.934;2023-04-01T13:29:57;0.27;;;0.27;;
18532;SDS011;9396;51.510;11.934;2023-04-01T13:32:33;1.43;;;0.60;;
18532;SDS011;9396;51.510;11.934;2023-04-01T13:35:08;1.60;;;0.60;;
18532;SDS011;9396;51.510;11.934;2023-04-01T13:38:02;1.03;;;0.57;;
18532;SDS011;9396;51.510;11.934;2023-04-01T13:40:46;0.87;;;0.60;;
18532;SDS011;9396;51.510;11.934;2023-04-01T13:43:19;0.80;;;0.57;;
18532;SDS011;9396;51.510;11.934;2023-04-01T13:45:55;0.90;;;0.70;;
18532;SDS011;9396;51.510;11.934;2023-04-01T13:48:34;0.70;;;0.40;;
18532;SDS011;9396;51.510;11.934;2023-04-01T13:51:36;1.63;;;0.63;;
18532;SDS011;9396;51.510;11.934;2023-04-01T13:54:30;0.50;;;0.40;;
18532;SDS011;9396;51.510;11.934;2023-04-01T13:57:17;1.30;;;0.60;;
18532;SDS011;9396;51.510;11.934;2023-04-01T14:03:17;0.50;;;0.50;;
18532;SDS011;9396;51.510;11.934;2023-04-01T14:05:56;2.10;;;0.50;;
18532;SDS011;9396;51.510;11.934;2023-04-01T14:11:30;0.90;;;0.57;;
18532;SDS011;9396;51.510;11.934;2023-04-01T14:14:04;1.57;;;0.60;;
18532;SDS011;9396;51.510;11.934;2023-04-01T14:16:48;1.10;;;0.80;;
18532;SDS011;9396;51.510;11.934;2023-04-01T14:19:34;0.70;;;0.50;;
18532;SDS011;9396;51.510;11.934;2023-04-01T14:22:19;2.37;;;0.50;;
18532;SDS011;9396;51.510;11.934;2023-04-01T14:28:00;2.00;;;0.80;;
18532;SDS011;9396;51.510;11.934;2023-04-01T14:30:38;0.70;;;0.60;;
18532;SDS011;9396;51.510;11.934;2023-04-01T14:33:28;1.27;;;0.73;;
18532;SDS011;9396;51.510;11.934;2023-04-01T14:36:13;0.90;;;0.63;;
18532;SDS011;9396;51.510;11.934;2023-04-01T14:39:23;0.77;;;0.60;;
18532;SDS011;9396;51.510;11.934;2023-04-01T14:42:15;1.53;;;0.60;;
18532;SDS011;9396;51.510;11.934;2023-04-01T14:45:04;1.10;;;0.70;;
18532;SDS011;9396;51.510;11.934;2023-04-01T14:47:48;3.13;;;0.70;;
18532;SDS011;9396;51.510;11.934;2023-04-01T14:50:20;1.50;;;0.90;;
18532;SDS011;9396;51.510;11.934;2023-04-01T14:52:53;1.83;;;1.10;;
18532;SDS011;9396;51.510;11.934;2023-04-01T14:55:27;2.43;;;1.00;;
18532;SDS011;9396;51.510;11.934;2023-04-01T14:57:58;1.00;;;0.87;;
18532;SDS011;9396;51.510;11.934;2023-04-01T15:00:27;0.90;;;0.70;;
18532;SDS011;9396;51.510;11.934;2023-04-01T15:03:13;4.20;;;3.77;;
18532;SDS011;9396;51.510;11.934;2023-04-01T15:05:49;7.47;;;5.97;;
18532;SDS011;9396;51.510;11.934;2023-04-01T15:08:21;8.80;;;7.47;;
18532;SDS011;9396;51.510;11.934;2023-04-01T15:11:10;2.10;;;1.80;;
18532;SDS011;9396;51.510;11.934;2023-04-01T15:13:58;1.73;;;0.93;;
18532;SDS011;9396;51.510;11.934;2023-04-01T15:16:41;1.43;;;1.03;;
18532;SDS011;9396;51.510;11.934;2023-04-01T15:19:19;1.40;;;0.90;;
18532;SDS011;9396;51.510;11.934;2023-04-01T15:22:00;1.30;;;0.80;;
18532;SDS011;9396;51.510;11.934;2023-04-01T15:24:46;0.80;;;0.80;;
18532;SDS011;9396;51.510;11.934;2023-04-01T15:27:16;1.03;;;0.90;;
18532;SDS011;9396;51.510;11.934;2023-04-01T15:33:02;3.30;;;1.60;;
18532;SDS011;9396;51.510;11.934;2023-04-01T15:35:51;3.17;;;1.50;;
18532;SDS011;9396;51.510;11.934;2023-04-01T15:38:28;4.80;;;1.70;;
18532;SDS011;9396;51.510;11.934;2023-04-01T15:41:02;2.40;;;1.67;;
18532;SDS011;9396;51.510;11.934;2023-04-01T15:43:36;1.63;;;1.47;;
18532;SDS011;9396;51.510;11.934;2023-04-01T15:46:09;1.57;;;1.20;;
18532;SDS011;9396;51.510;11.934;2023-04-01T15:48:57;1.57;;;1.27;;
18532;SDS011;9396;51.510;11.934;2023-04-01T15:51:47;1.90;;;1.50;;
18532;SDS011;9396;51.510;11.934;2023-04-01T15:57:24;3.23;;;1.40;;
18532;SDS011;9396;51.510;11.934;2023-04-01T16:00:04;1.73;;;1.60;;
18532;SDS011;9396;51.510;11.934;2023-04-01T16:02:38;2.50;;;1.60;;
18532;SDS011;9396;51.510;11.934;2023-04-01T16:05:22;2.60;;;1.87;;
18532;SDS011;9396;51.510;11.934;2023-04-01T16:07:59;1.67;;;1.47;;
18532;SDS011;9396;51.510;11.934;2023-04-01T16:10:44;2.17;;;1.17;;
18532;SDS011;9396;51.510;11.934;2023-04-01T16:13:23;1.90;;;1.10;;
18532;SDS011;9396;51.510;11.934;2023-04-01T16:15:58;1.13;;;0.80;;
18532;SDS011;9396;51.510;11.934;2023-04-01T16:18:39;1.00;;;0.80;;
18532;SDS011;9396;51.510;11.934;2023-04-01T16:21:27;5.30;;;1.47;;
18532;SDS011;9396;51.510;11.934;2023-04-01T16:24:03;1.10;;;0.80;;
18532;SDS011;9396;51.510;11.934;2023-04-01T16:26:39;1.63;;;0.87;;
18532;SDS011;9396;51.510;11.934;2023-04-01T16:29:16;1.07;;;0.90;;
18532;SDS011;9396;51.510;11.934;2023-04-01T16:31:52;1.40;;;1.00;;
18532;SDS011;9396;51.510;11.934;2023-04-01T16:34:27;2.03;;;1.00;;
18532;SDS011;9396;51.510;11.934;2023-04-01T16:37:03;1.60;;;1.00;;
18532;SDS011;9396;51.510;11.934;2023-04-01T16:39:41;1.73;;;1.10;;
18532;SDS011;9396;51.510;11.934;2023-04-01T16:45:15;2.77;;;2.10;;
18532;SDS011;9396;51.510;11.934;2023-04-01T16:47:47;2.20;;;2.00;;
18532;SDS011;9396;51.510;11.934;2023-04-01T16:50:18;3.47;;;2.23;;
18532;SDS011;9396;51.510;11.934;2023-04-01T16:52:59;5.20;;;2.43;;
18532;SDS011;9396;51.510;11.934;2023-04-01T16:55:35;2.77;;;2.20;;
18532;SDS011;9396;51.510;11.934;2023-04-01T16:58:14;2.87;;;2.03;;
18532;SDS011;9396;51.510;11.934;2023-04-01T17:00:48;2.50;;;2.23;;
18532;SDS011;9396;51.510;11.934;2023-04-01T17:03:16;2.60;;;2.07;;
18532;SDS011;9396;51.510;11.934;2023-04-01T17:05:51;4.10;;;2.63;;
18532;SDS011;9396;51.510;11.934;2023-04-01T17:08:39;4.17;;;2.50;;